Panama, New York
Current Conditions -  °F | °C
As of 1:15 PM on Monday 24 Nov 2014 (Local Time) from KJHW Reporting Station
Overcast Overcast  
Wind Chill: 63°   Ceiling: 7000
Heat Index: 63°   Visibility: 10mi
Dew Point: 43°   Wind: 20mph
Humidity: 48%   Direction: 210°SSW
Pressure: 29.31"   Gusts: 33mph
Location:  42.08°N, 79.48°W
Report Text: KJHW 241815Z 21017G29KT 10SM FEW060 BKN070 OVC090 17/06 A2931 RMK AO1
Loading
Personal Weather Stations






























Interactive Weather Map New forecast layout! Learn more

10-Day Weather Forecast

Advertisements
Track Severe Weather on mobile